sensor_id;sensor_type;location;lat;lon;timestamp;pressure;altitude;pressure_sealevel;temperature;humidity
74336;BME280;62755;-33.398;-70.572;2023-07-29T00:01:13;93288.94;;;21.27;36.78
74336;BME280;62755;-33.398;-70.572;2023-07-29T00:03:43;93290.75;;;21.30;36.86
74336;BME280;62755;-33.398;-70.572;2023-07-29T00:06:14;93289.22;;;21.29;36.89
74336;BME280;62755;-33.398;-70.572;2023-07-29T00:08:44;93284.16;;;21.22;36.95
74336;BME280;62755;-33.398;-70.572;2023-07-29T00:11:13;93283.31;;;21.30;37.03
74336;BME280;62755;-33.398;-70.572;2023-07-29T00:13:43;93282.84;;;21.32;37.10
74336;BME280;62755;-33.398;-70.572;2023-07-29T00:16:14;93276.81;;;21.28;36.76
74336;BME280;62755;-33.398;-70.572;2023-07-29T00:18:44;93285.84;;;21.34;36.29
74336;BME280;62755;-33.398;-70.572;2023-07-29T00:21:15;93290.34;;;21.37;37.01
74336;BME280;62755;-33.398;-70.572;2023-07-29T00:23:45;93289.47;;;21.45;37.50
74336;BME280;62755;-33.398;-70.572;2023-07-29T00:26:15;93294.31;;;21.36;37.97
74336;BME280;62755;-33.398;-70.572;2023-07-29T00:28:44;93302.22;;;21.34;38.14
74336;BME280;62755;-33.398;-70.572;2023-07-29T00:31:14;93297.31;;;21.38;38.33
74336;BME280;62755;-33.398;-70.572;2023-07-29T00:33:44;93295.22;;;21.33;37.56
74336;BME280;62755;-33.398;-70.572;2023-07-29T00:36:16;93295.16;;;21.27;37.84
74336;BME280;62755;-33.398;-70.572;2023-07-29T00:38:46;93282.69;;;21.21;38.05
74336;BME280;62755;-33.398;-70.572;2023-07-29T00:41:16;93272.50;;;21.21;38.14
74336;BME280;62755;-33.398;-70.572;2023-07-29T00:43:45;93274.38;;;21.30;37.80
74336;BME280;62755;-33.398;-70.572;2023-07-29T00:46:15;93284.19;;;21.07;37.65
74336;BME280;62755;-33.398;-70.572;2023-07-29T00:48:46;93289.16;;;21.23;36.94
74336;BME280;62755;-33.398;-70.572;2023-07-29T00:51:17;93313.50;;;21.27;37.49
74336;BME280;62755;-33.398;-70.572;2023-07-29T00:53:47;93343.06;;;21.14;38.26
74336;BME280;62755;-33.398;-70.572;2023-07-29T00:56:17;93335.91;;;21.02;38.91
74336;BME280;62755;-33.398;-70.572;2023-07-29T00:58:47;93352.34;;;20.92;39.00
74336;BME280;62755;-33.398;-70.572;2023-07-29T01:01:16;93362.97;;;20.90;39.29
74336;BME280;62755;-33.398;-70.572;2023-07-29T01:03:46;93359.78;;;20.77;38.36
74336;BME280;62755;-33.398;-70.572;2023-07-29T01:06:27;93358.81;;;20.66;38.73
74336;BME280;62755;-33.398;-70.572;2023-07-29T01:09:02;93340.28;;;20.70;38.48
74336;BME280;62755;-33.398;-70.572;2023-07-29T01:11:44;93364.84;;;20.84;39.06
74336;BME280;62755;-33.398;-70.572;2023-07-29T01:14:24;93363.16;;;20.72;39.09
74336;BME280;62755;-33.398;-70.572;2023-07-29T01:17:03;93352.25;;;20.87;39.27
74336;BME280;62755;-33.398;-70.572;2023-07-29T01:19:43;93346.03;;;20.86;39.61
74336;BME280;62755;-33.398;-70.572;2023-07-29T01:22:21;93350.75;;;20.86;39.29
74336;BME280;62755;-33.398;-70.572;2023-07-29T01:24:52;93343.97;;;20.81;39.93
74336;BME280;62755;-33.398;-70.572;2023-07-29T01:27:22;93331.47;;;20.75;39.41
74336;BME280;62755;-33.398;-70.572;2023-07-29T01:29:51;93326.66;;;20.70;39.34
74336;BME280;62755;-33.398;-70.572;2023-07-29T01:32:28;93318.78;;;20.57;39.51
74336;BME280;62755;-33.398;-70.572;2023-07-29T01:35:03;93323.66;;;20.53;39.15
74336;BME280;62755;-33.398;-70.572;2023-07-29T01:37:38;93328.25;;;20.47;39.09
74336;BME280;62755;-33.398;-70.572;2023-07-29T01:40:11;93322.72;;;20.42;38.97
74336;BME280;62755;-33.398;-70.572;2023-07-29T01:42:41;93313.75;;;20.27;38.64
74336;BME280;62755;-33.398;-70.572;2023-07-29T01:45:12;93298.16;;;20.27;38.80
74336;BME280;62755;-33.398;-70.572;2023-07-29T01:47:42;93304.22;;;20.46;38.68
74336;BME280;62755;-33.398;-70.572;2023-07-29T01:50:12;93292.09;;;20.32;38.49
74336;BME280;62755;-33.398;-70.572;2023-07-29T01:52:41;93298.66;;;20.40;38.43
74336;BME280;62755;-33.398;-70.572;2023-07-29T01:55:13;93286.06;;;20.43;37.13
74336;BME280;62755;-33.398;-70.572;2023-07-29T01:57:42;93286.44;;;20.50;37.93
74336;BME280;62755;-33.398;-70.572;2023-07-29T02:00:12;93268.69;;;20.40;37.67
74336;BME280;62755;-33.398;-70.572;2023-07-29T02:02:42;93244.38;;;20.51;37.17
74336;BME280;62755;-33.398;-70.572;2023-07-29T02:05:11;93241.16;;;20.67;36.93
74336;BME280;62755;-33.398;-70.572;2023-07-29T02:07:41;93230.63;;;20.75;36.92
74336;BME280;62755;-33.398;-70.572;2023-07-29T02:10:13;93204.50;;;20.68;36.77
74336;BME280;62755;-33.398;-70.572;2023-07-29T02:12:43;93207.34;;;20.59;35.73
74336;BME280;62755;-33.398;-70.572;2023-07-29T02:15:12;93209.69;;;20.66;35.65
74336;BME280;62755;-33.398;-70.572;2023-07-29T02:17:42;93203.31;;;20.69;35.10
74336;BME280;62755;-33.398;-70.572;2023-07-29T02:20:12;93207.88;;;20.78;36.12
74336;BME280;62755;-33.398;-70.572;2023-07-29T02:22:42;93225.94;;;20.75;35.61
74336;BME280;62755;-33.398;-70.572;2023-07-29T02:25:13;93247.53;;;20.64;36.62
74336;BME280;62755;-33.398;-70.572;2023-07-29T02:27:43;93271.41;;;20.40;38.12
74336;BME280;62755;-33.398;-70.572;2023-07-29T02:30:12;93265.28;;;20.31;36.91
74336;BME280;62755;-33.398;-70.572;2023-07-29T02:32:42;93298.09;;;20.36;38.01
74336;BME280;62755;-33.398;-70.572;2023-07-29T02:35:13;93330.44;;;19.96;40.23
74336;BME280;62755;-33.398;-70.572;2023-07-29T02:37:42;93354.59;;;19.79;41.26
74336;BME280;62755;-33.398;-70.572;2023-07-29T02:40:14;93380.38;;;19.93;41.52
74336;BME280;62755;-33.398;-70.572;2023-07-29T02:42:44;93374.00;;;19.96;41.32
74336;BME280;62755;-33.398;-70.572;2023-07-29T02:45:13;93368.63;;;20.10;41.59
74336;BME280;62755;-33.398;-70.572;2023-07-29T02:47:43;93375.09;;;20.13;41.57
74336;BME280;62755;-33.398;-70.572;2023-07-29T02:50:13;93390.34;;;19.96;42.15
74336;BME280;62755;-33.398;-70.572;2023-07-29T02:52:42;93378.81;;;20.01;42.31
74336;BME280;62755;-33.398;-70.572;2023-07-29T02:55:14;93376.66;;;20.05;42.24
74336;BME280;62755;-33.398;-70.572;2023-07-29T02:57:43;93394.44;;;20.15;42.33
74336;BME280;62755;-33.398;-70.572;2023-07-29T03:00:14;93371.78;;;20.09;42.30
74336;BME280;62755;-33.398;-70.572;2023-07-29T03:02:44;93389.59;;;20.19;42.13
74336;BME280;62755;-33.398;-70.572;2023-07-29T03:05:13;93374.22;;;20.07;42.49
74336;BME280;62755;-33.398;-70.572;2023-07-29T03:07:43;93385.94;;;19.75;43.05
74336;BME280;62755;-33.398;-70.572;2023-07-29T03:10:14;93372.44;;;19.80;42.93
74336;BME280;62755;-33.398;-70.572;2023-07-29T03:12:44;93385.47;;;19.76;43.13
74336;BME280;62755;-33.398;-70.572;2023-07-29T03:15:14;93372.53;;;19.62;43.33
74336;BME280;62755;-33.398;-70.572;2023-07-29T03:17:43;93379.88;;;19.38;43.70
74336;BME280;62755;-33.398;-70.572;2023-07-29T03:20:14;93393.63;;;19.44;43.48
74336;BME280;62755;-33.398;-70.572;2023-07-29T03:22:44;93373.72;;;19.38;43.09
74336;BME280;62755;-33.398;-70.572;2023-07-29T03:25:16;93334.78;;;19.13;44.07
74336;BME280;62755;-33.398;-70.572;2023-07-29T03:27:46;93311.34;;;19.25;44.02
74336;BME280;62755;-33.398;-70.572;2023-07-29T03:30:19;93300.03;;;19.17;43.40
74336;BME280;62755;-33.398;-70.572;2023-07-29T03:32:49;93303.75;;;18.96;43.66
74336;BME280;62755;-33.398;-70.572;2023-07-29T03:35:19;93317.66;;;18.89;44.34
74336;BME280;62755;-33.398;-70.572;2023-07-29T03:37:49;93315.88;;;18.77;44.02
74336;BME280;62755;-33.398;-70.572;2023-07-29T03:40:20;93289.47;;;18.78;43.46
74336;BME280;62755;-33.398;-70.572;2023-07-29T03:42:50;93274.81;;;18.75;43.48
74336;BME280;62755;-33.398;-70.572;2023-07-29T03:45:19;93261.81;;;18.88;42.92
74336;BME280;62755;-33.398;-70.572;2023-07-29T03:47:49;93247.00;;;18.89;42.13
74336;BME280;62755;-33.398;-70.572;2023-07-29T03:50:19;93259.63;;;19.01;42.21
74336;BME280;62755;-33.398;-70.572;2023-07-29T03:52:48;93256.88;;;19.10;40.53
74336;BME280;62755;-33.398;-70.572;2023-07-29T03:55:20;93264.06;;;19.22;40.92
74336;BME280;62755;-33.398;-70.572;2023-07-29T03:57:50;93267.34;;;19.36;40.03
74336;BME280;62755;-33.398;-70.572;2023-07-29T04:00:19;93263.22;;;19.40;40.44
74336;BME280;62755;-33.398;-70.572;2023-07-29T04:02:49;93251.56;;;19.49;39.88
74336;BME280;62755;-33.398;-70.572;2023-07-29T04:05:18;93251.47;;;19.58;38.59
74336;BME280;62755;-33.398;-70.572;2023-07-29T04:07:48;93260.75;;;19.75;37.32
74336;BME280;62755;-33.398;-70.572;2023-07-29T04:10:19;93252.16;;;19.91;36.33
74336;BME280;62755;-33.398;-70.572;2023-07-29T04:12:49;93264.94;;;19.99;36.15
74336;BME280;62755;-33.398;-70.572;2023-07-29T04:15:19;93263.84;;;20.06;35.21
74336;BME280;62755;-33.398;-70.572;2023-07-29T04:17:48;93269.88;;;20.25;34.36
74336;BME280;62755;-33.398;-70.572;2023-07-29T04:20:18;93296.09;;;20.22;35.47
74336;BME280;62755;-33.398;-70.572;2023-07-29T04:22:48;93297.47;;;20.17;35.71
74336;BME280;62755;-33.398;-70.572;2023-07-29T04:25:19;93301.84;;;20.24;35.03
74336;BME280;62755;-33.398;-70.572;2023-07-29T04:27:49;93305.41;;;20.30;35.42
74336;BME280;62755;-33.398;-70.572;2023-07-29T04:30:18;93316.13;;;20.10;37.01
74336;BME280;62755;-33.398;-70.572;2023-07-29T04:32:48;93322.00;;;19.94;37.88
74336;BME280;62755;-33.398;-70.572;2023-07-29T04:35:17;93323.22;;;19.93;37.75
74336;BME280;62755;-33.398;-70.572;2023-07-29T04:37:47;93328.72;;;19.84;39.59
74336;BME280;62755;-33.398;-70.572;2023-07-29T04:40:16;93318.53;;;19.70;41.15
74336;BME280;62755;-33.398;-70.572;2023-07-29T04:42:48;93318.66;;;19.52;42.27
74336;BME280;62755;-33.398;-70.572;2023-07-29T04:45:18;93320.50;;;18.95;44.52
74336;BME280;62755;-33.398;-70.572;2023-07-29T04:47:47;93312.28;;;18.71;45.31
74336;BME280;62755;-33.398;-70.572;2023-07-29T04:50:17;93323.94;;;18.35;46.40
74336;BME280;62755;-33.398;-70.572;2023-07-29T04:52:46;93330.75;;;18.22;46.96
74336;BME280;62755;-33.398;-70.572;2023-07-29T04:55:16;93326.53;;;18.12;47.16
74336;BME280;62755;-33.398;-70.572;2023-07-29T04:57:47;93336.75;;;18.17;46.80
74336;BME280;62755;-33.398;-70.572;2023-07-29T05:00:17;93354.13;;;18.19;47.18
74336;BME280;62755;-33.398;-70.572;2023-07-29T05:02:47;93357.56;;;18.38;46.90
74336;BME280;62755;-33.398;-70.572;2023-07-29T05:05:17;93361.50;;;18.46;46.69
74336;BME280;62755;-33.398;-70.572;2023-07-29T05:07:46;93370.09;;;18.26;47.32
74336;BME280;62755;-33.398;-70.572;2023-07-29T05:10:16;93365.16;;;18.43;46.97
74336;BME280;62755;-33.398;-70.572;2023-07-29T05:12:47;93357.00;;;18.43;46.85
74336;BME280;62755;-33.398;-70.572;2023-07-29T05:15:17;93347.63;;;18.62;46.15
74336;BME280;62755;-33.398;-70.572;2023-07-29T05:17:47;93347.59;;;18.71;46.46
74336;BME280;62755;-33.398;-70.572;2023-07-29T05:20:17;93352.84;;;18.84;45.93
74336;BME280;62755;-33.398;-70.572;2023-07-29T05:22:47;93343.34;;;18.88;45.57
74336;BME280;62755;-33.398;-70.572;2023-07-29T05:25:16;93332.03;;;18.81;45.43
74336;BME280;62755;-33.398;-70.572;2023-07-29T05:27:48;93340.31;;;18.86;45.49
74336;BME280;62755;-33.398;-70.572;2023-07-29T05:30:17;93343.16;;;18.92;45.12
74336;BME280;62755;-33.398;-70.572;2023-07-29T05:32:47;93341.19;;;19.01;44.64
74336;BME280;62755;-33.398;-70.572;2023-07-29T05:35:16;93330.47;;;18.98;44.10
74336;BME280;62755;-33.398;-70.572;2023-07-29T05:37:46;93316.41;;;19.08;44.78
74336;BME280;62755;-33.398;-70.572;2023-07-29T05:40:15;93323.50;;;18.97;44.78
74336;BME280;62755;-33.398;-70.572;2023-07-29T05:42:47;93331.88;;;18.75;45.84
74336;BME280;62755;-33.398;-70.572;2023-07-29T05:45:16;93332.09;;;18.45;46.59
74336;BME280;62755;-33.398;-70.572;2023-07-29T05:47:46;93325.59;;;18.33;46.99
74336;BME280;62755;-33.398;-70.572;2023-07-29T05:50:16;93305.97;;;18.38;46.57
74336;BME280;62755;-33.398;-70.572;2023-07-29T05:52:46;93310.22;;;18.57;46.12
74336;BME280;62755;-33.398;-70.572;2023-07-29T05:55:15;93302.38;;;18.50;46.03
74336;BME280;62755;-33.398;-70.572;2023-07-29T05:57:45;93309.25;;;18.69;44.59
74336;BME280;62755;-33.398;-70.572;2023-07-29T06:00:16;93305.59;;;18.81;44.45
74336;BME280;62755;-33.398;-70.572;2023-07-29T06:02:46;93306.53;;;18.78;44.46
74336;BME280;62755;-33.398;-70.572;2023-07-29T06:05:16;93306.53;;;18.78;44.51
74336;BME280;62755;-33.398;-70.572;2023-07-29T06:07:45;93301.09;;;18.78;44.57
74336;BME280;62755;-33.398;-70.572;2023-07-29T06:10:16;93295.66;;;18.78;43.87
74336;BME280;62755;-33.398;-70.572;2023-07-29T06:12:46;93284.78;;;18.78;43.60
74336;BME280;62755;-33.398;-70.572;2023-07-29T06:15:17;93293.25;;;18.71;43.46
74336;BME280;62755;-33.398;-70.572;2023-07-29T06:17:49;93293.25;;;18.80;43.20
74336;BME280;62755;-33.398;-70.572;2023-07-29T06:20:19;93299.84;;;18.88;42.82
74336;BME280;62755;-33.398;-70.572;2023-07-29T06:22:48;93304.19;;;18.95;42.14
74336;BME280;62755;-33.398;-70.572;2023-07-29T06:25:18;93288.66;;;18.95;41.74
74336;BME280;62755;-33.398;-70.572;2023-07-29T06:27:47;93276.00;;;18.92;42.22
74336;BME280;62755;-33.398;-70.572;2023-07-29T06:30:19;93288.03;;;19.00;42.16
74336;BME280;62755;-33.398;-70.572;2023-07-29T06:32:48;93283.50;;;19.06;42.19
74336;BME280;62755;-33.398;-70.572;2023-07-29T06:35:17;93297.19;;;19.12;42.34
74336;BME280;62755;-33.398;-70.572;2023-07-29T06:37:47;93292.44;;;18.98;41.24
74336;BME280;62755;-33.398;-70.572;2023-07-29T06:40:17;93289.28;;;18.90;41.83
74336;BME280;62755;-33.398;-70.572;2023-07-29T06:42:46;93269.09;;;18.82;41.99
74336;BME280;62755;-33.398;-70.572;2023-07-29T06:45:18;93273.72;;;18.91;41.54
74336;BME280;62755;-33.398;-70.572;2023-07-29T06:47:47;93276.19;;;18.80;42.04
74336;BME280;62755;-33.398;-70.572;2023-07-29T06:50:17;93283.88;;;18.81;42.17
74336;BME280;62755;-33.398;-70.572;2023-07-29T06:52:46;93291.13;;;18.75;42.03
74336;BME280;62755;-33.398;-70.572;2023-07-29T06:55:16;93284.31;;;18.80;42.28
74336;BME280;62755;-33.398;-70.572;2023-07-29T06:57:47;93280.25;;;18.75;42.65
74336;BME280;62755;-33.398;-70.572;2023-07-29T07:00:18;93280.25;;;18.75;42.91
74336;BME280;62755;-33.398;-70.572;2023-07-29T07:02:47;93277.25;;;18.73;42.80
74336;BME280;62755;-33.398;-70.572;2023-07-29T07:05:17;93265.31;;;18.80;42.00
74336;BME280;62755;-33.398;-70.572;2023-07-29T07:07:46;93268.50;;;18.78;40.87
74336;BME280;62755;-33.398;-70.572;2023-07-29T07:10:16;93263.47;;;18.86;41.33
74336;BME280;62755;-33.398;-70.572;2023-07-29T07:12:46;93267.97;;;18.89;41.17
74336;BME280;62755;-33.398;-70.572;2023-07-29T07:15:17;93268.56;;;18.93;41.34
74336;BME280;62755;-33.398;-70.572;2023-07-29T07:17:47;93261.22;;;18.84;41.55
74336;BME280;62755;-33.398;-70.572;2023-07-29T07:20:16;93260.63;;;18.80;39.88
74336;BME280;62755;-33.398;-70.572;2023-07-29T07:22:46;93265.78;;;18.69;40.53
74336;BME280;62755;-33.398;-70.572;2023-07-29T07:25:16;93268.97;;;18.68;40.53
74336;BME280;62755;-33.398;-70.572;2023-07-29T07:27:45;93268.44;;;18.87;39.98
74336;BME280;62755;-33.398;-70.572;2023-07-29T07:30:17;93268.66;;;19.07;38.70
74336;BME280;62755;-33.398;-70.572;2023-07-29T07:32:46;93276.34;;;19.09;38.19
74336;BME280;62755;-33.398;-70.572;2023-07-29T07:35:17;93267.88;;;19.16;38.82
74336;BME280;62755;-33.398;-70.572;2023-07-29T07:37:47;93269.72;;;19.10;39.64
74336;BME280;62755;-33.398;-70.572;2023-07-29T07:40:17;93268.09;;;19.03;40.15
74336;BME280;62755;-33.398;-70.572;2023-07-29T07:42:46;93227.44;;;18.76;40.80
74336;BME280;62755;-33.398;-70.572;2023-07-29T07:45:18;93269.75;;;19.01;40.95
74336;BME280;62755;-33.398;-70.572;2023-07-29T07:47:47;93262.22;;;18.96;41.09
74336;BME280;62755;-33.398;-70.572;2023-07-29T07:50:17;93264.25;;;18.86;41.50
74336;BME280;62755;-33.398;-70.572;2023-07-29T07:52:47;93261.53;;;18.77;41.83
74336;BME280;62755;-33.398;-70.572;2023-07-29T07:55:16;93257.19;;;18.71;41.54
74336;BME280;62755;-33.398;-70.572;2023-07-29T07:57:46;93271.09;;;18.64;41.87
74336;BME280;62755;-33.398;-70.572;2023-07-29T08:00:18;93276.34;;;18.76;42.87
74336;BME280;62755;-33.398;-70.572;2023-07-29T08:02:47;93266.97;;;18.77;43.39
74336;BME280;62755;-33.398;-70.572;2023-07-29T08:05:17;93278.50;;;18.54;43.25
74336;BME280;62755;-33.398;-70.572;2023-07-29T08:07:47;93269.75;;;18.59;43.15
74336;BME280;62755;-33.398;-70.572;2023-07-29T08:10:16;93263.97;;;18.75;43.20
74336;BME280;62755;-33.398;-70.572;2023-07-29T08:12:46;93259.75;;;18.74;43.13
74336;BME280;62755;-33.398;-70.572;2023-07-29T08:15:17;93279.66;;;18.71;42.95
74336;BME280;62755;-33.398;-70.572;2023-07-29T08:17:47;93273.75;;;18.82;43.43
74336;BME280;62755;-33.398;-70.572;2023-07-29T08:20:16;93274.22;;;18.80;42.77
74336;BME280;62755;-33.398;-70.572;2023-07-29T08:22:46;93269.72;;;18.68;43.32
74336;BME280;62755;-33.398;-70.572;2023-07-29T08:25:16;93273.94;;;18.69;42.99
74336;BME280;62755;-33.398;-70.572;2023-07-29T08:27:45;93269.38;;;18.84;42.72
74336;BME280;62755;-33.398;-70.572;2023-07-29T08:30:15;93273.41;;;18.89;42.42
74336;BME280;62755;-33.398;-70.572;2023-07-29T08:32:47;93280.53;;;18.86;42.12
74336;BME280;62755;-33.398;-70.572;2023-07-29T08:35:17;93278.47;;;18.72;42.07
74336;BME280;62755;-33.398;-70.572;2023-07-29T08:37:46;93280.00;;;18.64;41.67
74336;BME280;62755;-33.398;-70.572;2023-07-29T08:40:16;93271.22;;;18.69;41.30
74336;BME280;62755;-33.398;-70.572;2023-07-29T08:42:48;93269.72;;;18.68;41.38
74336;BME280;62755;-33.398;-70.572;2023-07-29T08:45:18;93260.00;;;18.44;41.74
74336;BME280;62755;-33.398;-70.572;2023-07-29T08:47:51;93243.75;;;17.98;41.08
74336;BME280;62755;-33.398;-70.572;2023-07-29T08:50:25;93255.94;;;18.21;41.16
74336;BME280;62755;-33.398;-70.572;2023-07-29T08:52:55;93256.56;;;18.16;40.77
74336;BME280;62755;-33.398;-70.572;2023-07-29T08:55:25;93262.09;;;18.12;40.67
74336;BME280;62755;-33.398;-70.572;2023-07-29T08:57:55;93261.66;;;18.05;40.62
74336;BME280;62755;-33.398;-70.572;2023-07-29T09:00:27;93262.59;;;18.02;40.67
74336;BME280;62755;-33.398;-70.572;2023-07-29T09:02:58;93263.19;;;18.06;40.42
74336;BME280;62755;-33.398;-70.572;2023-07-29T09:05:34;93266.50;;;18.19;40.27
74336;BME280;62755;-33.398;-70.572;2023-07-29T09:08:05;93259.84;;;18.29;40.26
74336;BME280;62755;-33.398;-70.572;2023-07-29T09:10:36;93259.25;;;18.43;40.33
74336;BME280;62755;-33.398;-70.572;2023-07-29T09:13:06;93248.63;;;18.54;39.92
74336;BME280;62755;-33.398;-70.572;2023-07-29T09:15:36;93254.06;;;18.63;40.06
74336;BME280;62755;-33.398;-70.572;2023-07-29T09:18:11;93244.81;;;18.70;40.28
74336;BME280;62755;-33.398;-70.572;2023-07-29T09:20:41;93244.66;;;18.73;39.93
74336;BME280;62755;-33.398;-70.572;2023-07-29T09:23:11;93242.09;;;18.70;40.04
74336;BME280;62755;-33.398;-70.572;2023-07-29T09:25:41;93247.75;;;18.39;40.24
74336;BME280;62755;-33.398;-70.572;2023-07-29T09:28:11;93247.78;;;18.21;40.59
74336;BME280;62755;-33.398;-70.572;2023-07-29T09:30:42;93251.41;;;18.09;39.86
74336;BME280;62755;-33.398;-70.572;2023-07-29T09:33:13;93252.78;;;17.95;38.78
74336;BME280;62755;-33.398;-70.572;2023-07-29T09:35:43;93258.38;;;17.74;38.81
74336;BME280;62755;-33.398;-70.572;2023-07-29T09:38:15;93260.78;;;17.72;38.61
74336;BME280;62755;-33.398;-70.572;2023-07-29T09:40:44;93259.25;;;17.89;38.47
74336;BME280;62755;-33.398;-70.572;2023-07-29T09:43:17;93231.84;;;17.78;38.33
74336;BME280;62755;-33.398;-70.572;2023-07-29T09:45:47;93253.22;;;18.03;38.22
74336;BME280;62755;-33.398;-70.572;2023-07-29T09:48:22;93262.44;;;18.05;37.56
74336;BME280;62755;-33.398;-70.572;2023-07-29T09:50:52;93266.50;;;18.01;37.44
74336;BME280;62755;-33.398;-70.572;2023-07-29T09:53:22;93280.97;;;17.89;37.64
74336;BME280;62755;-33.398;-70.572;2023-07-29T09:55:53;93261.81;;;17.65;38.24
74336;BME280;62755;-33.398;-70.572;2023-07-29T09:58:27;93268.88;;;17.53;38.62
74336;BME280;62755;-33.398;-70.572;2023-07-29T10:03:34;93269.50;;;17.48;39.21
74336;BME280;62755;-33.398;-70.572;2023-07-29T10:06:06;93267.56;;;17.58;39.36
74336;BME280;62755;-33.398;-70.572;2023-07-29T10:08:35;93264.38;;;17.60;39.72
74336;BME280;62755;-33.398;-70.572;2023-07-29T10:11:07;93262.91;;;17.77;39.84
74336;BME280;62755;-33.398;-70.572;2023-07-29T10:13:37;93261.38;;;17.76;39.67
74336;BME280;62755;-33.398;-70.572;2023-07-29T10:16:07;93249.31;;;17.68;39.59
74336;BME280;62755;-33.398;-70.572;2023-07-29T10:18:39;93259.13;;;17.74;39.65
74336;BME280;62755;-33.398;-70.572;2023-07-29T10:21:12;93256.13;;;17.72;40.10
74336;BME280;62755;-33.398;-70.572;2023-07-29T10:23:45;93256.09;;;17.81;39.35
74336;BME280;62755;-33.398;-70.572;2023-07-29T10:26:20;93250.22;;;17.92;38.96
74336;BME280;62755;-33.398;-70.572;2023-07-29T10:28:52;93250.22;;;17.92;39.04
74336;BME280;62755;-33.398;-70.572;2023-07-29T10:31:24;93255.03;;;17.97;39.25
74336;BME280;62755;-33.398;-70.572;2023-07-29T10:33:56;93249.47;;;18.00;38.79
74336;BME280;62755;-33.398;-70.572;2023-07-29T10:36:26;93255.03;;;18.15;38.29
74336;BME280;62755;-33.398;-70.572;2023-07-29T10:38:57;93261.66;;;18.23;37.39
74336;BME280;62755;-33.398;-70.572;2023-07-29T10:41:57;93264.34;;;18.32;37.04
74336;BME280;62755;-33.398;-70.572;2023-07-29T10:44:48;93265.53;;;18.40;37.64
74336;BME280;62755;-33.398;-70.572;2023-07-29T10:47:20;93268.28;;;18.49;37.26
74336;BME280;62755;-33.398;-70.572;2023-07-29T10:49:52;93271.00;;;18.49;37.66
74336;BME280;62755;-33.398;-70.572;2023-07-29T10:52:30;93265.88;;;18.51;37.59
74336;BME280;62755;-33.398;-70.572;2023-07-29T10:55:00;93266.00;;;18.48;36.91
74336;BME280;62755;-33.398;-70.572;2023-07-29T10:57:34;93272.50;;;18.41;36.25
74336;BME280;62755;-33.398;-70.572;2023-07-29T11:00:05;93265.88;;;18.33;36.59
74336;BME280;62755;-33.398;-70.572;2023-07-29T11:02:36;93263.16;;;18.24;36.53
74336;BME280;62755;-33.398;-70.572;2023-07-29T11:05:16;93257.47;;;17.68;37.05
74336;BME280;62755;-33.398;-70.572;2023-07-29T11:07:47;93245.81;;;17.40;37.01
74336;BME280;62755;-33.398;-70.572;2023-07-29T11:10:17;93252.81;;;17.59;37.38
74336;BME280;62755;-33.398;-70.572;2023-07-29T11:12:47;93251.97;;;17.40;37.11
74336;BME280;62755;-33.398;-70.572;2023-07-29T11:15:20;93247.50;;;17.55;36.50
74336;BME280;62755;-33.398;-70.572;2023-07-29T11:17:51;93244.19;;;17.51;36.27
74336;BME280;62755;-33.398;-70.572;2023-07-29T11:20:24;93247.81;;;17.48;36.21
74336;BME280;62755;-33.398;-70.572;2023-07-29T11:22:54;93254.00;;;17.49;36.79
74336;BME280;62755;-33.398;-70.572;2023-07-29T11:25:27;93253.38;;;17.63;36.20
74336;BME280;62755;-33.398;-70.572;2023-07-29T11:27:58;93264.72;;;17.71;36.29
74336;BME280;62755;-33.398;-70.572;2023-07-29T11:30:28;93270.13;;;17.80;35.87
74336;BME280;62755;-33.398;-70.572;2023-07-29T11:32:58;93259.56;;;17.64;35.83
74336;BME280;62755;-33.398;-70.572;2023-07-29T11:35:32;93256.28;;;17.69;35.38
74336;BME280;62755;-33.398;-70.572;2023-07-29T11:38:02;93258.38;;;17.74;34.64
74336;BME280;62755;-33.398;-70.572;2023-07-29T11:40:32;93249.03;;;17.84;34.10
74336;BME280;62755;-33.398;-70.572;2023-07-29T11:43:01;93252.03;;;17.95;34.38
74336;BME280;62755;-33.398;-70.572;2023-07-29T11:45:32;93247.19;;;17.99;34.33
74336;BME280;62755;-33.398;-70.572;2023-07-29T11:48:02;93256.84;;;18.09;34.48
74336;BME280;62755;-33.398;-70.572;2023-07-29T11:50:33;93257.59;;;18.18;32.65
74336;BME280;62755;-33.398;-70.572;2023-07-29T11:53:04;93255.03;;;18.15;32.95
74336;BME280;62755;-33.398;-70.572;2023-07-29T11:55:34;93258.97;;;18.14;32.66
74336;BME280;62755;-33.398;-70.572;2023-07-29T11:58:05;93272.53;;;18.05;32.73
74336;BME280;62755;-33.398;-70.572;2023-07-29T12:00:34;93268.78;;;18.02;33.31
74336;BME280;62755;-33.398;-70.572;2023-07-29T12:03:04;93265.31;;;18.02;33.10
74336;BME280;62755;-33.398;-70.572;2023-07-29T12:05:37;93265.59;;;18.13;33.21
74336;BME280;62755;-33.398;-70.572;2023-07-29T12:08:08;93274.94;;;18.21;33.49
74336;BME280;62755;-33.398;-70.572;2023-07-29T12:10:38;93280.22;;;18.06;33.59
74336;BME280;62755;-33.398;-70.572;2023-07-29T12:13:09;93284.00;;;17.73;34.68
74336;BME280;62755;-33.398;-70.572;2023-07-29T12:15:38;93294.22;;;17.50;35.01
74336;BME280;62755;-33.398;-70.572;2023-07-29T12:18:08;93304.31;;;17.68;35.47
74336;BME280;62755;-33.398;-70.572;2023-07-29T12:20:40;93298.78;;;17.90;34.81
74336;BME280;62755;-33.398;-70.572;2023-07-29T12:23:10;93274.81;;;17.88;35.18
74336;BME280;62755;-33.398;-70.572;2023-07-29T12:25:40;93298.75;;;18.17;35.46
74336;BME280;62755;-33.398;-70.572;2023-07-29T12:28:09;93303.59;;;18.22;34.86
74336;BME280;62755;-33.398;-70.572;2023-07-29T12:30:42;93302.38;;;18.23;34.53
74336;BME280;62755;-33.398;-70.572;2023-07-29T12:33:12;93303.88;;;18.33;34.39
74336;BME280;62755;-33.398;-70.572;2023-07-29T12:36:00;93306.88;;;18.35;34.58
74336;BME280;62755;-33.398;-70.572;2023-07-29T12:38:31;93313.50;;;18.34;34.72
74336;BME280;62755;-33.398;-70.572;2023-07-29T12:41:00;93309.59;;;18.26;34.68
74336;BME280;62755;-33.398;-70.572;2023-07-29T12:43:30;93296.97;;;18.14;35.40
74336;BME280;62755;-33.398;-70.572;2023-07-29T12:46:01;93303.44;;;18.25;35.48
74336;BME280;62755;-33.398;-70.572;2023-07-29T12:48:30;93320.75;;;18.28;35.20
74336;BME280;62755;-33.398;-70.572;2023-07-29T12:51:02;93316.22;;;18.34;34.98